Погода Бервищина неделю

Минская область, Белоруссия

22 - 28 мая
  • 22мая
    Сегодня
    +12°
    +22°
    Небольшая облачность
    ВремяПогодаТемператураВлажностьДавлениеВетер, м/сВероятность осадков
    00:00Облачно с прояснениями+13°C93 %745 мм4.0 м/с24 %
    03:00Небольшая облачность+13°C95 %744 мм3.2 м/с29 %
    06:00Практически безоблачно+12°C93 %744 мм5.2 м/с22 %
    09:00Практически безоблачно+17°C81 %745 мм3.7 м/с4 %
    12:00Небольшая облачность+20°C63 %745 мм5.6 м/с20 %
    15:00Небольшая облачность+22°C58 %745 мм5.8 м/с30 %
    18:00Облачно с прояснениями+22°C56 %744 мм4.6 м/с25 %
    21:00Небольшая облачность+18°C79 %745 мм4.9 м/с24 %
  • 23мая
    Четверг
    +12°
    +23°
    Облачно с прояснениями
    ВремяПогодаТемператураВлажностьДавлениеВетер, м/сВероятность осадков
    00:00Небольшая облачность+15°C86 %745 мм3.8 м/с12 %
    03:00Облачно с прояснениями+13°C94 %745 мм3.6 м/с8 %
    06:00Небольшая облачность+13°C93 %746 мм4.7 м/с9 %
    09:00Облачно с прояснениями+18°C83 %747 мм5.2 м/с6 %
    12:00Небольшая облачность+22°C61 %747 мм6.4 м/с33 %
    15:00Облачно с прояснениями+23°C58 %747 мм6.0 м/с50 %
    18:00Облачно с прояснениями, небольшой дождь+22°C58 %747 мм5.3 м/с56 %
    21:00Небольшая облачность+19°C75 %748 мм4.1 м/с18 %
  • 24мая
    Пятница
    +11°
    +24°
    Небольшая облачность
    ВремяПогодаТемператураВлажностьДавлениеВетер, м/сВероятность осадков
    00:00Ясно и безоблачно+15°C82 %749 мм4.8 м/с2 %
    03:00Ясно и безоблачно+14°C87 %749 мм4.6 м/с1 %
    06:00Ясно и безоблачно+13°C80 %750 мм5.0 м/с2 %
    09:00Ясно и безоблачно+18°C66 %751 мм5.3 м/с2 %
    12:00Ясно и безоблачно+22°C58 %751 мм5.5 м/с4 %
    15:00Небольшая облачность+23°C52 %751 мм6.3 м/с13 %
    18:00Облачно с прояснениями+23°C52 %750 мм6.3 м/с30 %
    21:00Облачно с прояснениями+19°C62 %750 мм4.4 м/с7 %
  • 25мая
    Суббота
    +11°
    +24°
    Облачно с прояснениями
    ВремяПогодаТемператураВлажностьДавлениеВетер, м/сВероятность осадков
    00:00Облачно с прояснениями+15°C66 %750 мм4.7 м/с2 %
    03:00Облачно с прояснениями+13°C70 %750 мм4.1 м/с2 %
    06:00Облачно с прояснениями+12°C73 %750 мм4.0 м/с7 %
    09:00Облачно с прояснениями+18°C64 %750 мм4.2 м/с8 %
    12:00Облачно с прояснениями+22°C55 %750 мм4.8 м/с15 %
    15:00Облачно с прояснениями+24°C52 %750 мм5.6 м/с33 %
    18:00Облачно с прояснениями+24°C50 %749 мм4.3 м/с36 %
    21:00Облачно с прояснениями+19°C59 %749 мм3.5 м/с16 %
  • 26мая
    Воскресенье
    +10°
    +24°
    Ясно и безоблачно
    ВремяПогодаТемператураВлажностьДавлениеВетер, м/сВероятность осадков
    00:00Облачно с прояснениями+15°C56 %749 мм3.8 м/с5 %
    03:00Облачно с прояснениями+13°C57 %749 мм3.2 м/с12 %
    06:00Облачно с прояснениями+11°C65 %749 мм2.8 м/с10 %
    09:00Облачно с прояснениями+18°C59 %750 мм3.1 м/с8 %
    12:00Небольшая облачность+22°C36 %750 мм4.3 м/с10 %
    15:00Ясно и безоблачно+24°C35 %750 мм4.4 м/с16 %
    18:00Практически безоблачно+24°C37 %749 мм3.8 м/с18 %
    21:00Ясно и безоблачно+19°C63 %750 мм2.1 м/с12 %
Мы используем cookies
Соглашаюсь